sensor_id;sensor_type;location;lat;lon;timestamp;P1;durP1;ratioP1;P2;durP2;ratioP2
59976;SDS011;45837;51.076;3.578;2022-12-07T00:01:20;4.72;;;3.05;;
59976;SDS011;45837;51.076;3.578;2022-12-07T00:03:48;4.53;;;2.78;;
59976;SDS011;45837;51.076;3.578;2022-12-07T00:06:16;5.55;;;3.22;;
59976;SDS011;45837;51.076;3.578;2022-12-07T00:08:43;4.85;;;3.25;;
59976;SDS011;45837;51.076;3.578;2022-12-07T00:11:10;5.13;;;3.10;;
59976;SDS011;45837;51.076;3.578;2022-12-07T00:13:38;4.55;;;2.80;;
59976;SDS011;45837;51.076;3.578;2022-12-07T00:16:05;6.50;;;3.22;;
59976;SDS011;45837;51.076;3.578;2022-12-07T00:18:34;5.15;;;3.03;;
59976;SDS011;45837;51.076;3.578;2022-12-07T00:21:01;5.10;;;3.13;;
59976;SDS011;45837;51.076;3.578;2022-12-07T00:23:47;5.75;;;3.45;;
59976;SDS011;45837;51.076;3.578;2022-12-07T00:26:15;5.70;;;3.00;;
59976;SDS011;45837;51.076;3.578;2022-12-07T00:28:46;4.65;;;2.92;;
59976;SDS011;45837;51.076;3.578;2022-12-07T00:31:13;4.75;;;2.80;;
59976;SDS011;45837;51.076;3.578;2022-12-07T00:33:40;6.05;;;3.38;;
59976;SDS011;45837;51.076;3.578;2022-12-07T00:36:07;4.75;;;2.95;;
59976;SDS011;45837;51.076;3.578;2022-12-07T00:38:35;6.00;;;3.22;;
59976;SDS011;45837;51.076;3.578;2022-12-07T00:41:04;4.80;;;2.97;;
59976;SDS011;45837;51.076;3.578;2022-12-07T00:43:31;4.30;;;3.00;;
59976;SDS011;45837;51.076;3.578;2022-12-07T00:45:58;4.63;;;3.08;;
59976;SDS011;45837;51.076;3.578;2022-12-07T00:48:24;5.30;;;3.00;;
59976;SDS011;45837;51.076;3.578;2022-12-07T00:50:50;5.00;;;3.22;;
59976;SDS011;45837;51.076;3.578;2022-12-07T00:53:16;4.32;;;2.88;;
59976;SDS011;45837;51.076;3.578;2022-12-07T00:55:43;4.90;;;3.20;;
59976;SDS011;45837;51.076;3.578;2022-12-07T00:58:09;5.25;;;3.13;;
59976;SDS011;45837;51.076;3.578;2022-12-07T01:00:36;6.53;;;3.28;;
59976;SDS011;45837;51.076;3.578;2022-12-07T01:03:04;4.80;;;3.08;;
59976;SDS011;45837;51.076;3.578;2022-12-07T01:05:31;5.90;;;3.22;;
59976;SDS011;45837;51.076;3.578;2022-12-07T01:07:57;4.18;;;2.88;;
59976;SDS011;45837;51.076;3.578;2022-12-07T01:10:23;4.38;;;3.08;;
59976;SDS011;45837;51.076;3.578;2022-12-07T01:12:49;4.70;;;2.88;;
59976;SDS011;45837;51.076;3.578;2022-12-07T01:15:15;4.45;;;2.72;;
59976;SDS011;45837;51.076;3.578;2022-12-07T01:17:40;4.70;;;2.75;;
59976;SDS011;45837;51.076;3.578;2022-12-07T01:20:06;4.43;;;2.85;;
59976;SDS011;45837;51.076;3.578;2022-12-07T01:22:40;4.45;;;2.75;;
59976;SDS011;45837;51.076;3.578;2022-12-07T01:25:06;5.18;;;3.10;;
59976;SDS011;45837;51.076;3.578;2022-12-07T01:27:34;4.57;;;2.88;;
59976;SDS011;45837;51.076;3.578;2022-12-07T01:30:00;4.78;;;3.00;;
59976;SDS011;45837;51.076;3.578;2022-12-07T01:32:27;4.55;;;2.85;;
59976;SDS011;45837;51.076;3.578;2022-12-07T01:34:54;4.25;;;3.00;;
59976;SDS011;45837;51.076;3.578;2022-12-07T01:37:20;4.95;;;3.20;;
59976;SDS011;45837;51.076;3.578;2022-12-07T01:39:49;4.32;;;2.72;;
59976;SDS011;45837;51.076;3.578;2022-12-07T01:42:16;4.00;;;2.50;;
59976;SDS011;45837;51.076;3.578;2022-12-07T01:47:43;4.53;;;2.63;;
59976;SDS011;45837;51.076;3.578;2022-12-07T01:50:22;4.43;;;2.88;;
59976;SDS011;45837;51.076;3.578;2022-12-07T01:52:51;5.25;;;2.90;;
59976;SDS011;45837;51.076;3.578;2022-12-07T01:55:21;4.45;;;2.80;;
59976;SDS011;45837;51.076;3.578;2022-12-07T01:57:49;4.50;;;2.72;;
59976;SDS011;45837;51.076;3.578;2022-12-07T02:00:18;3.75;;;2.65;;
59976;SDS011;45837;51.076;3.578;2022-12-07T02:02:59;4.57;;;2.92;;
59976;SDS011;45837;51.076;3.578;2022-12-07T02:05:36;4.20;;;2.50;;
59976;SDS011;45837;51.076;3.578;2022-12-07T02:08:03;4.25;;;2.67;;
59976;SDS011;45837;51.076;3.578;2022-12-07T02:10:30;4.68;;;2.78;;
59976;SDS011;45837;51.076;3.578;2022-12-07T02:13:08;4.65;;;2.80;;
59976;SDS011;45837;51.076;3.578;2022-12-07T02:15:40;4.82;;;2.78;;
59976;SDS011;45837;51.076;3.578;2022-12-07T02:21:34;4.43;;;2.92;;
59976;SDS011;45837;51.076;3.578;2022-12-07T02:26:51;4.18;;;2.67;;
59976;SDS011;45837;51.076;3.578;2022-12-07T02:40:21;4.40;;;2.80;;
59976;SDS011;45837;51.076;3.578;2022-12-07T02:43:09;5.25;;;2.70;;
59976;SDS011;45837;51.076;3.578;2022-12-07T02:45:38;4.78;;;2.72;;
59976;SDS011;45837;51.076;3.578;2022-12-07T02:48:05;3.88;;;2.50;;
59976;SDS011;45837;51.076;3.578;2022-12-07T02:50:34;5.22;;;2.50;;
59976;SDS011;45837;51.076;3.578;2022-12-07T02:52:59;4.13;;;2.67;;
59976;SDS011;45837;51.076;3.578;2022-12-07T02:55:28;4.35;;;2.42;;
59976;SDS011;45837;51.076;3.578;2022-12-07T03:04:12;3.55;;;2.35;;
59976;SDS011;45837;51.076;3.578;2022-12-07T03:07:06;4.20;;;2.50;;
59976;SDS011;45837;51.076;3.578;2022-12-07T03:09:55;4.03;;;2.30;;
59976;SDS011;45837;51.076;3.578;2022-12-07T03:12:36;4.45;;;2.85;;
59976;SDS011;45837;51.076;3.578;2022-12-07T03:15:17;4.38;;;2.35;;
59976;SDS011;45837;51.076;3.578;2022-12-07T03:18:13;3.53;;;2.55;;
59976;SDS011;45837;51.076;3.578;2022-12-07T03:20:43;4.22;;;2.63;;
59976;SDS011;45837;51.076;3.578;2022-12-07T03:23:11;3.33;;;2.20;;
59976;SDS011;45837;51.076;3.578;2022-12-07T03:25:40;3.13;;;2.13;;
59976;SDS011;45837;51.076;3.578;2022-12-07T03:28:09;3.65;;;2.40;;
59976;SDS011;45837;51.076;3.578;2022-12-07T03:30:52;4.30;;;2.42;;
59976;SDS011;45837;51.076;3.578;2022-12-07T03:36:11;3.72;;;2.47;;
59976;SDS011;45837;51.076;3.578;2022-12-07T03:38:53;3.85;;;2.20;;
59976;SDS011;45837;51.076;3.578;2022-12-07T03:41:27;3.50;;;2.25;;
59976;SDS011;45837;51.076;3.578;2022-12-07T03:43:56;4.55;;;2.60;;
59976;SDS011;45837;51.076;3.578;2022-12-07T03:46:32;4.63;;;2.40;;
59976;SDS011;45837;51.076;3.578;2022-12-07T03:52:12;3.53;;;2.47;;
59976;SDS011;45837;51.076;3.578;2022-12-07T03:57:44;4.22;;;2.28;;
59976;SDS011;45837;51.076;3.578;2022-12-07T04:00:12;3.75;;;2.38;;
59976;SDS011;45837;51.076;3.578;2022-12-07T04:02:38;3.55;;;2.33;;
59976;SDS011;45837;51.076;3.578;2022-12-07T04:05:06;4.88;;;2.45;;
59976;SDS011;45837;51.076;3.578;2022-12-07T04:07:32;4.20;;;2.10;;
59976;SDS011;45837;51.076;3.578;2022-12-07T04:09:58;3.53;;;2.50;;
59976;SDS011;45837;51.076;3.578;2022-12-07T04:12:23;3.70;;;2.45;;
59976;SDS011;45837;51.076;3.578;2022-12-07T04:14:49;3.60;;;2.17;;
59976;SDS011;45837;51.076;3.578;2022-12-07T04:17:15;3.15;;;2.00;;
59976;SDS011;45837;51.076;3.578;2022-12-07T04:19:41;3.47;;;2.00;;
59976;SDS011;45837;51.076;3.578;2022-12-07T04:22:07;3.53;;;2.20;;
59976;SDS011;45837;51.076;3.578;2022-12-07T04:24:33;4.60;;;2.35;;
59976;SDS011;45837;51.076;3.578;2022-12-07T04:26:59;3.45;;;2.08;;
59976;SDS011;45837;51.076;3.578;2022-12-07T04:29:26;3.85;;;2.03;;
59976;SDS011;45837;51.076;3.578;2022-12-07T04:31:52;3.78;;;2.20;;
59976;SDS011;45837;51.076;3.578;2022-12-07T04:34:18;3.30;;;1.90;;
59976;SDS011;45837;51.076;3.578;2022-12-07T04:36:45;3.67;;;2.45;;
59976;SDS011;45837;51.076;3.578;2022-12-07T04:39:19;3.58;;;2.20;;
59976;SDS011;45837;51.076;3.578;2022-12-07T04:41:46;3.53;;;1.98;;
59976;SDS011;45837;51.076;3.578;2022-12-07T04:44:13;3.47;;;2.10;;
59976;SDS011;45837;51.076;3.578;2022-12-07T04:46:40;2.95;;;1.92;;
59976;SDS011;45837;51.076;3.578;2022-12-07T04:49:06;3.25;;;2.13;;
59976;SDS011;45837;51.076;3.578;2022-12-07T04:51:32;3.10;;;1.88;;
59976;SDS011;45837;51.076;3.578;2022-12-07T04:53:58;3.22;;;1.95;;
59976;SDS011;45837;51.076;3.578;2022-12-07T04:56:24;4.95;;;2.25;;
59976;SDS011;45837;51.076;3.578;2022-12-07T04:58:50;4.63;;;2.05;;
59976;SDS011;45837;51.076;3.578;2022-12-07T05:01:18;5.32;;;2.47;;
59976;SDS011;45837;51.076;3.578;2022-12-07T05:03:44;3.65;;;2.20;;
59976;SDS011;45837;51.076;3.578;2022-12-07T05:06:10;3.88;;;2.10;;
59976;SDS011;45837;51.076;3.578;2022-12-07T05:08:37;5.18;;;2.38;;
59976;SDS011;45837;51.076;3.578;2022-12-07T05:11:04;5.93;;;2.00;;
59976;SDS011;45837;51.076;3.578;2022-12-07T05:13:30;9.55;;;2.50;;
59976;SDS011;45837;51.076;3.578;2022-12-07T05:15:56;10.40;;;2.53;;
59976;SDS011;45837;51.076;3.578;2022-12-07T05:18:22;12.05;;;2.17;;
59976;SDS011;45837;51.076;3.578;2022-12-07T05:20:48;9.32;;;2.13;;
59976;SDS011;45837;51.076;3.578;2022-12-07T05:23:16;10.60;;;2.28;;
59976;SDS011;45837;51.076;3.578;2022-12-07T05:25:42;8.45;;;2.10;;
59976;SDS011;45837;51.076;3.578;2022-12-07T05:28:08;2.97;;;1.67;;
59976;SDS011;45837;51.076;3.578;2022-12-07T05:30:34;9.18;;;2.05;;
59976;SDS011;45837;51.076;3.578;2022-12-07T05:33:00;5.22;;;1.95;;
59976;SDS011;45837;51.076;3.578;2022-12-07T05:35:27;5.75;;;1.85;;
59976;SDS011;45837;51.076;3.578;2022-12-07T05:37:54;4.35;;;1.88;;
59976;SDS011;45837;51.076;3.578;2022-12-07T05:40:21;5.50;;;2.00;;
59976;SDS011;45837;51.076;3.578;2022-12-07T05:42:46;8.13;;;2.13;;
59976;SDS011;45837;51.076;3.578;2022-12-07T05:45:12;6.22;;;2.15;;
59976;SDS011;45837;51.076;3.578;2022-12-07T05:47:38;9.30;;;1.60;;
59976;SDS011;45837;51.076;3.578;2022-12-07T05:50:05;6.60;;;1.70;;
59976;SDS011;45837;51.076;3.578;2022-12-07T05:52:32;4.65;;;2.10;;
59976;SDS011;45837;51.076;3.578;2022-12-07T05:54:57;3.42;;;1.80;;
59976;SDS011;45837;51.076;3.578;2022-12-07T05:57:23;8.68;;;1.70;;
59976;SDS011;45837;51.076;3.578;2022-12-07T05:59:49;5.97;;;2.15;;
59976;SDS011;45837;51.076;3.578;2022-12-07T06:02:15;16.98;;;1.90;;
59976;SDS011;45837;51.076;3.578;2022-12-07T06:04:42;6.38;;;1.65;;
59976;SDS011;45837;51.076;3.578;2022-12-07T06:07:11;9.48;;;2.80;;
59976;SDS011;45837;51.076;3.578;2022-12-07T06:09:38;10.18;;;1.90;;
59976;SDS011;45837;51.076;3.578;2022-12-07T06:12:04;5.03;;;1.90;;
59976;SDS011;45837;51.076;3.578;2022-12-07T06:14:48;5.70;;;1.75;;
59976;SDS011;45837;51.076;3.578;2022-12-07T06:17:15;8.23;;;2.05;;
59976;SDS011;45837;51.076;3.578;2022-12-07T06:19:41;7.53;;;1.48;;
59976;SDS011;45837;51.076;3.578;2022-12-07T06:22:07;7.47;;;1.63;;
59976;SDS011;45837;51.076;3.578;2022-12-07T06:24:34;8.90;;;2.00;;
59976;SDS011;45837;51.076;3.578;2022-12-07T06:27:00;5.68;;;1.75;;
59976;SDS011;45837;51.076;3.578;2022-12-07T06:29:26;11.55;;;1.85;;
59976;SDS011;45837;51.076;3.578;2022-12-07T06:31:52;23.42;;;2.55;;
59976;SDS011;45837;51.076;3.578;2022-12-07T06:34:19;18.02;;;2.00;;
59976;SDS011;45837;51.076;3.578;2022-12-07T06:36:47;7.35;;;1.73;;
59976;SDS011;45837;51.076;3.578;2022-12-07T06:39:17;11.25;;;2.22;;
59976;SDS011;45837;51.076;3.578;2022-12-07T06:41:43;5.70;;;2.00;;
59976;SDS011;45837;51.076;3.578;2022-12-07T06:44:09;10.38;;;1.90;;
59976;SDS011;45837;51.076;3.578;2022-12-07T06:46:36;9.65;;;3.13;;
59976;SDS011;45837;51.076;3.578;2022-12-07T06:49:02;13.82;;;1.90;;
59976;SDS011;45837;51.076;3.578;2022-12-07T06:51:29;21.88;;;2.63;;
59976;SDS011;45837;51.076;3.578;2022-12-07T06:53:55;20.33;;;2.65;;
59976;SDS011;45837;51.076;3.578;2022-12-07T06:56:21;7.82;;;1.70;;
59976;SDS011;45837;51.076;3.578;2022-12-07T06:58:48;11.70;;;1.92;;
59976;SDS011;45837;51.076;3.578;2022-12-07T07:01:15;11.93;;;2.08;;
59976;SDS011;45837;51.076;3.578;2022-12-07T07:03:43;12.05;;;1.98;;
59976;SDS011;45837;51.076;3.578;2022-12-07T07:06:10;8.52;;;1.60;;
59976;SDS011;45837;51.076;3.578;2022-12-07T07:08:37;7.50;;;1.77;;
59976;SDS011;45837;51.076;3.578;2022-12-07T07:11:03;7.57;;;1.30;;
59976;SDS011;45837;51.076;3.578;2022-12-07T07:13:30;8.38;;;2.00;;
59976;SDS011;45837;51.076;3.578;2022-12-07T07:15:56;6.15;;;2.00;;
59976;SDS011;45837;51.076;3.578;2022-12-07T07:18:22;8.45;;;2.08;;
59976;SDS011;45837;51.076;3.578;2022-12-07T07:20:48;4.35;;;1.55;;
59976;SDS011;45837;51.076;3.578;2022-12-07T07:23:16;5.90;;;1.60;;
59976;SDS011;45837;51.076;3.578;2022-12-07T07:25:42;4.57;;;1.63;;
59976;SDS011;45837;51.076;3.578;2022-12-07T07:28:07;5.40;;;1.90;;
59976;SDS011;45837;51.076;3.578;2022-12-07T07:30:33;8.10;;;1.77;;
59976;SDS011;45837;51.076;3.578;2022-12-07T07:33:00;8.90;;;1.85;;
59976;SDS011;45837;51.076;3.578;2022-12-07T07:35:27;9.70;;;1.80;;
59976;SDS011;45837;51.076;3.578;2022-12-07T07:37:54;4.70;;;1.67;;
59976;SDS011;45837;51.076;3.578;2022-12-07T07:40:20;17.40;;;1.98;;
59976;SDS011;45837;51.076;3.578;2022-12-07T07:42:47;6.22;;;1.95;;
59976;SDS011;45837;51.076;3.578;2022-12-07T07:45:13;5.00;;;1.42;;
59976;SDS011;45837;51.076;3.578;2022-12-07T07:47:39;3.95;;;1.30;;
59976;SDS011;45837;51.076;3.578;2022-12-07T07:50:05;3.85;;;1.42;;
59976;SDS011;45837;51.076;3.578;2022-12-07T07:52:31;9.15;;;1.75;;
59976;SDS011;45837;51.076;3.578;2022-12-07T07:54:57;7.10;;;2.10;;
59976;SDS011;45837;51.076;3.578;2022-12-07T07:57:23;5.35;;;1.48;;
59976;SDS011;45837;51.076;3.578;2022-12-07T07:59:49;4.57;;;1.67;;
59976;SDS011;45837;51.076;3.578;2022-12-07T08:02:16;6.68;;;2.08;;
59976;SDS011;45837;51.076;3.578;2022-12-07T08:04:43;8.68;;;1.63;;
59976;SDS011;45837;51.076;3.578;2022-12-07T08:07:10;8.88;;;1.90;;
59976;SDS011;45837;51.076;3.578;2022-12-07T08:09:37;4.07;;;1.52;;
59976;SDS011;45837;51.076;3.578;2022-12-07T08:12:03;10.70;;;1.90;;
59976;SDS011;45837;51.076;3.578;2022-12-07T08:14:29;7.32;;;1.55;;
59976;SDS011;45837;51.076;3.578;2022-12-07T08:16:55;5.60;;;1.70;;
59976;SDS011;45837;51.076;3.578;2022-12-07T08:19:22;5.90;;;1.38;;
59976;SDS011;45837;51.076;3.578;2022-12-07T08:21:47;5.25;;;2.13;;
59976;SDS011;45837;51.076;3.578;2022-12-07T08:24:13;5.03;;;1.83;;
59976;SDS011;45837;51.076;3.578;2022-12-07T08:26:40;5.07;;;1.70;;
59976;SDS011;45837;51.076;3.578;2022-12-07T08:29:06;6.97;;;1.60;;
59976;SDS011;45837;51.076;3.578;2022-12-07T08:31:32;6.10;;;1.38;;
59976;SDS011;45837;51.076;3.578;2022-12-07T08:33:58;3.83;;;1.45;;
59976;SDS011;45837;51.076;3.578;2022-12-07T08:36:24;8.43;;;1.63;;
59976;SDS011;45837;51.076;3.578;2022-12-07T08:38:50;4.57;;;1.08;;
59976;SDS011;45837;51.076;3.578;2022-12-07T08:41:16;5.13;;;1.55;;
59976;SDS011;45837;51.076;3.578;2022-12-07T08:43:42;5.38;;;1.27;;
59976;SDS011;45837;51.076;3.578;2022-12-07T08:46:09;4.20;;;1.13;;
59976;SDS011;45837;51.076;3.578;2022-12-07T08:48:45;5.32;;;1.50;;
59976;SDS011;45837;51.076;3.578;2022-12-07T08:51:15;5.57;;;1.48;;
59976;SDS011;45837;51.076;3.578;2022-12-07T08:53:41;3.63;;;1.70;;
59976;SDS011;45837;51.076;3.578;2022-12-07T08:56:08;8.77;;;1.77;;
59976;SDS011;45837;51.076;3.578;2022-12-07T08:58:35;5.93;;;1.30;;
59976;SDS011;45837;51.076;3.578;2022-12-07T09:01:02;5.97;;;1.42;;
59976;SDS011;45837;51.076;3.578;2022-12-07T09:03:28;5.25;;;1.20;;
59976;SDS011;45837;51.076;3.578;2022-12-07T09:05:54;7.88;;;1.58;;
59976;SDS011;45837;51.076;3.578;2022-12-07T09:08:21;3.75;;;1.20;;
59976;SDS011;45837;51.076;3.578;2022-12-07T09:10:51;4.30;;;1.27;;
59976;SDS011;45837;51.076;3.578;2022-12-07T09:13:17;4.45;;;1.15;;
59976;SDS011;45837;51.076;3.578;2022-12-07T09:15:42;9.10;;;1.13;;
59976;SDS011;45837;51.076;3.578;2022-12-07T09:18:08;6.30;;;1.27;;
59976;SDS011;45837;51.076;3.578;2022-12-07T09:20:34;4.72;;;1.20;;
59976;SDS011;45837;51.076;3.578;2022-12-07T09:23:00;6.40;;;1.00;;
59976;SDS011;45837;51.076;3.578;2022-12-07T09:25:26;5.90;;;1.05;;
59976;SDS011;45837;51.076;3.578;2022-12-07T09:27:55;4.75;;;1.20;;
59976;SDS011;45837;51.076;3.578;2022-12-07T09:30:22;3.25;;;1.40;;
59976;SDS011;45837;51.076;3.578;2022-12-07T09:32:48;4.93;;;1.13;;
59976;SDS011;45837;51.076;3.578;2022-12-07T09:35:14;3.45;;;1.02;;
59976;SDS011;45837;51.076;3.578;2022-12-07T09:37:40;2.85;;;0.95;;
59976;SDS011;45837;51.076;3.578;2022-12-07T09:40:06;6.05;;;1.00;;
59976;SDS011;45837;51.076;3.578;2022-12-07T09:42:33;3.40;;;1.10;;
59976;SDS011;45837;51.076;3.578;2022-12-07T09:45:02;2.00;;;0.82;;
59976;SDS011;45837;51.076;3.578;2022-12-07T09:47:30;3.65;;;1.02;;
59976;SDS011;45837;51.076;3.578;2022-12-07T09:50:06;4.05;;;1.10;;
59976;SDS011;45837;51.076;3.578;2022-12-07T09:52:38;1.90;;;0.90;;
59976;SDS011;45837;51.076;3.578;2022-12-07T09:55:12;3.75;;;1.27;;
59976;SDS011;45837;51.076;3.578;2022-12-07T09:57:40;2.20;;;0.80;;
59976;SDS011;45837;51.076;3.578;2022-12-07T10:00:10;2.58;;;0.85;;
59976;SDS011;45837;51.076;3.578;2022-12-07T10:02:43;2.35;;;1.02;;
59976;SDS011;45837;51.076;3.578;2022-12-07T10:05:14;2.53;;;1.00;;
59976;SDS011;45837;51.076;3.578;2022-12-07T10:07:41;3.92;;;1.10;;
59976;SDS011;45837;51.076;3.578;2022-12-07T10:10:15;2.33;;;0.93;;
59976;SDS011;45837;51.076;3.578;2022-12-07T10:20:48;7.57;;;1.33;;
59976;SDS011;45837;51.076;3.578;2022-12-07T10:23:15;6.30;;;1.02;;
59976;SDS011;45837;51.076;3.578;2022-12-07T10:25:42;4.72;;;1.35;;
59976;SDS011;45837;51.076;3.578;2022-12-07T10:30:54;3.80;;;1.00;;
59976;SDS011;45837;51.076;3.578;2022-12-07T10:33:30;4.43;;;1.05;;
59976;SDS011;45837;51.076;3.578;2022-12-07T10:36:02;5.43;;;1.20;;
59976;SDS011;45837;51.076;3.578;2022-12-07T10:41:55;3.88;;;1.02;;
59976;SDS011;45837;51.076;3.578;2022-12-07T10:44:30;4.10;;;1.27;;
59976;SDS011;45837;51.076;3.578;2022-12-07T10:49:48;3.30;;;1.52;;
59976;SDS011;45837;51.076;3.578;2022-12-07T10:58:03;4.75;;;1.13;;
59976;SDS011;45837;51.076;3.578;2022-12-07T11:09:04;10.02;;;1.30;;
59976;SDS011;45837;51.076;3.578;2022-12-07T11:17:57;5.60;;;1.67;;
59976;SDS011;45837;51.076;3.578;2022-12-07T11:20:51;3.38;;;1.02;;
59976;SDS011;45837;51.076;3.578;2022-12-07T11:29:28;6.45;;;1.50;;
59976;SDS011;45837;51.076;3.578;2022-12-07T11:34:23;9.20;;;1.67;;
59976;SDS011;45837;51.076;3.578;2022-12-07T11:36:59;14.60;;;1.55;;
59976;SDS011;45837;51.076;3.578;2022-12-07T11:39:31;13.52;;;2.30;;
59976;SDS011;45837;51.076;3.578;2022-12-07T11:42:24;8.80;;;1.88;;
59976;SDS011;45837;51.076;3.578;2022-12-07T11:44:55;8.88;;;1.30;;
59976;SDS011;45837;51.076;3.578;2022-12-07T11:50:14;13.23;;;1.52;;
59976;SDS011;45837;51.076;3.578;2022-12-07T11:55:47;16.80;;;1.50;;
59976;SDS011;45837;51.076;3.578;2022-12-07T12:01:22;8.93;;;1.80;;
59976;SDS011;45837;51.076;3.578;2022-12-07T12:06:37;13.30;;;1.50;;
59976;SDS011;45837;51.076;3.578;2022-12-07T12:09:05;5.68;;;1.73;;
59976;SDS011;45837;51.076;3.578;2022-12-07T12:12:27;13.82;;;1.83;;
59976;SDS011;45837;51.076;3.578;2022-12-07T12:14:59;9.93;;;1.40;;
59976;SDS011;45837;51.076;3.578;2022-12-07T12:28:18;10.55;;;1.80;;
59976;SDS011;45837;51.076;3.578;2022-12-07T12:31:08;10.27;;;1.45;;
59976;SDS011;45837;51.076;3.578;2022-12-07T12:33:38;17.25;;;2.28;;
59976;SDS011;45837;51.076;3.578;2022-12-07T12:36:17;15.43;;;2.40;;
59976;SDS011;45837;51.076;3.578;2022-12-07T12:51:56;26.25;;;2.75;;
59976;SDS011;45837;51.076;3.578;2022-12-07T12:54:58;23.25;;;2.97;;
59976;SDS011;45837;51.076;3.578;2022-12-07T12:57:27;26.45;;;3.20;;
59976;SDS011;45837;51.076;3.578;2022-12-07T13:00:20;31.73;;;3.70;;
59976;SDS011;45837;51.076;3.578;2022-12-07T13:02:50;17.08;;;3.05;;
59976;SDS011;45837;51.076;3.578;2022-12-07T13:05:22;39.17;;;3.67;;
59976;SDS011;45837;51.076;3.578;2022-12-07T13:08:02;25.90;;;2.83;;
59976;SDS011;45837;51.076;3.578;2022-12-07T13:10:41;37.20;;;4.13;;
59976;SDS011;45837;51.076;3.578;2022-12-07T13:23:21;36.80;;;4.15;;
59976;SDS011;45837;51.076;3.578;2022-12-07T13:31:54;21.95;;;3.35;;
59976;SDS011;45837;51.076;3.578;2022-12-07T13:34:34;26.48;;;3.10;;
59976;SDS011;45837;51.076;3.578;2022-12-07T13:39:44;21.92;;;2.92;;
59976;SDS011;45837;51.076;3.578;2022-12-07T13:42:45;22.98;;;2.75;;
59976;SDS011;45837;51.076;3.578;2022-12-07T13:45:23;19.17;;;2.75;;
59976;SDS011;45837;51.076;3.578;2022-12-07T13:50:58;17.13;;;2.03;;
59976;SDS011;45837;51.076;3.578;2022-12-07T13:53:26;21.90;;;2.67;;
59976;SDS011;45837;51.076;3.578;2022-12-07T13:55:59;21.27;;;2.67;;
59976;SDS011;45837;51.076;3.578;2022-12-07T13:58:26;10.00;;;2.30;;
59976;SDS011;45837;51.076;3.578;2022-12-07T14:00:55;26.77;;;2.50;;
59976;SDS011;45837;51.076;3.578;2022-12-07T14:03:42;12.20;;;2.05;;
59976;SDS011;45837;51.076;3.578;2022-12-07T14:06:15;14.85;;;2.78;;
59976;SDS011;45837;51.076;3.578;2022-12-07T14:08:42;23.70;;;3.42;;
59976;SDS011;45837;51.076;3.578;2022-12-07T14:11:18;17.55;;;2.08;;
59976;SDS011;45837;51.076;3.578;2022-12-07T14:16:25;15.55;;;3.47;;
59976;SDS011;45837;51.076;3.578;2022-12-07T14:18:54;9.90;;;2.42;;
59976;SDS011;45837;51.076;3.578;2022-12-07T14:21:22;21.23;;;2.08;;
59976;SDS011;45837;51.076;3.578;2022-12-07T14:24:07;9.98;;;2.13;;
59976;SDS011;45837;51.076;3.578;2022-12-07T14:26:33;24.08;;;2.38;;
59976;SDS011;45837;51.076;3.578;2022-12-07T14:29:21;16.17;;;2.28;;
59976;SDS011;45837;51.076;3.578;2022-12-07T14:31:48;26.83;;;3.53;;
59976;SDS011;45837;51.076;3.578;2022-12-07T14:34:14;17.70;;;2.97;;
59976;SDS011;45837;51.076;3.578;2022-12-07T14:36:39;33.22;;;3.33;;
59976;SDS011;45837;51.076;3.578;2022-12-07T14:39:05;19.10;;;3.80;;
59976;SDS011;45837;51.076;3.578;2022-12-07T14:41:31;17.40;;;2.58;;
59976;SDS011;45837;51.076;3.578;2022-12-07T14:44:16;22.40;;;3.03;;
59976;SDS011;45837;51.076;3.578;2022-12-07T14:46:42;29.45;;;2.63;;
59976;SDS011;45837;51.076;3.578;2022-12-07T14:49:08;20.08;;;2.28;;
59976;SDS011;45837;51.076;3.578;2022-12-07T14:51:35;16.15;;;2.60;;
59976;SDS011;45837;51.076;3.578;2022-12-07T14:54:04;15.98;;;2.42;;
59976;SDS011;45837;51.076;3.578;2022-12-07T14:56:31;22.48;;;2.58;;
59976;SDS011;45837;51.076;3.578;2022-12-07T14:58:57;12.98;;;2.40;;
59976;SDS011;45837;51.076;3.578;2022-12-07T15:01:23;19.17;;;2.83;;
59976;SDS011;45837;51.076;3.578;2022-12-07T15:03:49;14.20;;;2.72;;
59976;SDS011;45837;51.076;3.578;2022-12-07T15:06:16;18.60;;;2.67;;
59976;SDS011;45837;51.076;3.578;2022-12-07T15:08:43;14.90;;;2.35;;
59976;SDS011;45837;51.076;3.578;2022-12-07T15:11:18;17.48;;;2.30;;
59976;SDS011;45837;51.076;3.578;2022-12-07T15:13:44;15.57;;;2.70;;
59976;SDS011;45837;51.076;3.578;2022-12-07T15:16:29;16.52;;;2.38;;
59976;SDS011;45837;51.076;3.578;2022-12-07T15:18:56;11.73;;;2.53;;
59976;SDS011;45837;51.076;3.578;2022-12-07T15:21:21;10.10;;;2.95;;
59976;SDS011;45837;51.076;3.578;2022-12-07T15:23:47;26.80;;;2.95;;
59976;SDS011;45837;51.076;3.578;2022-12-07T15:26:13;15.18;;;2.55;;
59976;SDS011;45837;51.076;3.578;2022-12-07T15:28:41;15.55;;;2.33;;
59976;SDS011;45837;51.076;3.578;2022-12-07T15:31:13;15.68;;;2.35;;
59976;SDS011;45837;51.076;3.578;2022-12-07T15:33:40;19.08;;;2.55;;
59976;SDS011;45837;51.076;3.578;2022-12-07T15:36:06;12.50;;;2.38;;
59976;SDS011;45837;51.076;3.578;2022-12-07T15:38:33;14.70;;;2.63;;
59976;SDS011;45837;51.076;3.578;2022-12-07T15:41:00;24.98;;;4.13;;
59976;SDS011;45837;51.076;3.578;2022-12-07T15:43:26;12.65;;;2.95;;
59976;SDS011;45837;51.076;3.578;2022-12-07T15:46:10;14.70;;;3.13;;
59976;SDS011;45837;51.076;3.578;2022-12-07T15:48:36;19.20;;;2.60;;
59976;SDS011;45837;51.076;3.578;2022-12-07T15:51:05;17.88;;;2.38;;
59976;SDS011;45837;51.076;3.578;2022-12-07T15:53:33;22.75;;;2.65;;
59976;SDS011;45837;51.076;3.578;2022-12-07T15:56:00;22.70;;;3.13;;
59976;SDS011;45837;51.076;3.578;2022-12-07T15:58:31;16.48;;;3.03;;
59976;SDS011;45837;51.076;3.578;2022-12-07T16:00:56;16.73;;;2.58;;
59976;SDS011;45837;51.076;3.578;2022-12-07T16:03:22;19.50;;;2.58;;
59976;SDS011;45837;51.076;3.578;2022-12-07T16:05:49;18.30;;;3.40;;
59976;SDS011;45837;51.076;3.578;2022-12-07T16:08:15;18.58;;;2.88;;
59976;SDS011;45837;51.076;3.578;2022-12-07T16:10:41;21.83;;;2.70;;
59976;SDS011;45837;51.076;3.578;2022-12-07T16:13:10;16.90;;;2.65;;
59976;SDS011;45837;51.076;3.578;2022-12-07T16:15:39;9.88;;;2.80;;
59976;SDS011;45837;51.076;3.578;2022-12-07T16:18:06;13.02;;;3.03;;
59976;SDS011;45837;51.076;3.578;2022-12-07T16:20:32;22.27;;;2.67;;
59976;SDS011;45837;51.076;3.578;2022-12-07T16:22:58;12.23;;;2.17;;
59976;SDS011;45837;51.076;3.578;2022-12-07T16:25:23;9.10;;;2.80;;
59976;SDS011;45837;51.076;3.578;2022-12-07T16:27:50;12.68;;;2.72;;
59976;SDS011;45837;51.076;3.578;2022-12-07T16:30:17;11.43;;;2.92;;
59976;SDS011;45837;51.076;3.578;2022-12-07T16:32:43;20.33;;;2.88;;
59976;SDS011;45837;51.076;3.578;2022-12-07T16:35:09;18.70;;;3.47;;
59976;SDS011;45837;51.076;3.578;2022-12-07T16:37:35;9.38;;;2.65;;
59976;SDS011;45837;51.076;3.578;2022-12-07T16:40:01;13.05;;;2.58;;
59976;SDS011;45837;51.076;3.578;2022-12-07T16:42:27;11.60;;;2.33;;
59976;SDS011;45837;51.076;3.578;2022-12-07T16:44:57;11.65;;;2.17;;
59976;SDS011;45837;51.076;3.578;2022-12-07T16:47:23;8.82;;;2.13;;
59976;SDS011;45837;51.076;3.578;2022-12-07T16:49:48;15.45;;;2.90;;
59976;SDS011;45837;51.076;3.578;2022-12-07T16:52:14;35.22;;;4.07;;
59976;SDS011;45837;51.076;3.578;2022-12-07T16:54:40;31.35;;;3.83;;
59976;SDS011;45837;51.076;3.578;2022-12-07T16:57:06;20.00;;;3.55;;
59976;SDS011;45837;51.076;3.578;2022-12-07T16:59:32;19.27;;;3.78;;
59976;SDS011;45837;51.076;3.578;2022-12-07T17:01:58;28.83;;;2.97;;
59976;SDS011;45837;51.076;3.578;2022-12-07T17:04:24;26.50;;;3.28;;
59976;SDS011;45837;51.076;3.578;2022-12-07T17:06:49;24.23;;;3.22;;
59976;SDS011;45837;51.076;3.578;2022-12-07T17:09:15;23.83;;;3.00;;
59976;SDS011;45837;51.076;3.578;2022-12-07T17:11:43;23.60;;;3.72;;
59976;SDS011;45837;51.076;3.578;2022-12-07T17:14:09;22.95;;;3.60;;
59976;SDS011;45837;51.076;3.578;2022-12-07T17:16:54;17.05;;;3.05;;